Terminal Aerodrome Forecast
Issued by NWS Wilmington, OH

Current Version | Previous Version | Graphics & Text | Print | Product List | Glossary On
Versions: 1 2 3 4 5 6 7 8 9 10 11 12 13 14 15 16 17 18 19 20 21 22 23 24 25 26 27 28 29
000
FTUS41 KILN 261458 AAA
TAFCVG
TAF AMD
KCVG 261458Z 2615/2718 18012KT P6SM SCT250
     FM270300 16012KT P6SM FEW250 WS020/18045KT
     FM270900 18012KT P6SM VCSH BKN100 WS020/19045KT
     FM271200 19013G18KT 5SM -SHRA OVC028
     FM271700 22015G25KT P6SM OVC035=

USA.gov is the U.S. government's official web portal to all federal, state and local government web resources and services.